ENML/MOL METAR and TAF weather

Enter ICAO airport designator
Station Type Date Time Source
ENML METAR 2018/12/10 20:20 UTC NOAA

ENML 102020Z VRB02KT 9999 VCSH SCT024 02/01 Q1018


Station Type Date Time Source
ENML Decoded METAR 2018/12/10 20:20 UTC NOAA

Molde / Aro, Norway (ENML) 62-45N 007-16E 3M
Dec 10, 2018 - 03:20 PM EST / 2018.12.10 2020 UTC
Wind: Variable at 2 MPH (2 KT):0
Visibility: greater than 7 mile(s):0
Sky conditions: partly cloudy
Weather: showers in the vicinity
Temperature: 35 F (2 C)
Dew Point: 33 F (1 C)
Relative Humidity: 93%
Pressure (altimeter): 30.06 in. Hg (1018 hPa)
ob: ENML 102020Z VRB02KT 9999 VCSH SCT024 02/01 Q1018
cycle: 20

Station Type Date Time Source
ENML TAF UTC NOAA

Error!


Example: see airport list